createdAt,value
2022-08-28T00:01:20.137Z,13.15
2022-08-28T00:03:53.337Z,16.13
2022-08-28T00:06:25.447Z,16.02
2022-08-28T00:08:57.338Z,16.73
2022-08-28T00:11:29.150Z,19.38
2022-08-28T00:14:00.945Z,16.05
2022-08-28T00:16:33.554Z,15.93
2022-08-28T00:19:06.798Z,17.02
2022-08-28T00:21:38.653Z,20.73
2022-08-28T00:24:11.013Z,28.90
2022-08-28T00:27:01.569Z,26.90
2022-08-28T00:29:33.349Z,17.88
2022-08-28T00:32:05.942Z,15.23
2022-08-28T00:34:39.182Z,17.15
2022-08-28T00:37:11.007Z,21.60
2022-08-28T00:39:42.826Z,17.02
2022-08-28T00:42:15.836Z,18.38
2022-08-28T00:44:48.851Z,14.05
2022-08-28T00:47:20.657Z,18.30
2022-08-28T00:49:55.431Z,21.17
2022-08-28T00:52:28.434Z,17.90
2022-08-28T00:55:04.271Z,17.67
2022-08-28T00:57:38.770Z,17.95
2022-08-28T01:00:16.549Z,16.60
2022-08-28T01:02:48.487Z,19.02
2022-08-28T01:05:22.505Z,17.95
2022-08-28T01:07:57.490Z,16.02
2022-08-28T01:10:32.377Z,16.30
2022-08-28T01:13:04.855Z,17.20
2022-08-28T01:15:38.382Z,18.87
2022-08-28T01:18:15.546Z,19.77
2022-08-28T01:20:55.681Z,18.88
2022-08-28T01:23:51.809Z,23.15
2022-08-28T01:26:24.289Z,19.65
2022-08-28T01:28:58.432Z,16.90
2022-08-28T01:31:32.043Z,19.02
2022-08-28T01:34:04.625Z,20.48
2022-08-28T01:36:37.035Z,20.45
2022-08-28T01:39:14.852Z,20.27
2022-08-28T01:41:51.873Z,22.02
2022-08-28T01:44:26.528Z,20.80
2022-08-28T01:46:59.377Z,18.20
2022-08-28T01:49:31.372Z,20.77
2022-08-28T01:52:04.720Z,16.02
2022-08-28T01:57:10.973Z,17.88
2022-08-28T01:59:42.997Z,17.10
2022-08-28T02:02:16.287Z,18.70
2022-08-28T02:04:48.501Z,18.63
2022-08-28T02:07:20.408Z,17.17
2022-08-28T02:09:53.602Z,16.17
2022-08-28T02:12:25.485Z,17.92
2022-08-28T02:14:57.295Z,17.27
2022-08-28T02:17:29.204Z,16.80
2022-08-28T02:20:01.068Z,18.67
2022-08-28T02:22:33.081Z,19.65
2022-08-28T02:25:08.110Z,18.20
2022-08-28T02:27:40.084Z,18.77
2022-08-28T02:30:14.706Z,19.15
2022-08-28T02:32:46.956Z,19.80
2022-08-28T02:35:20.738Z,19.27
2022-08-28T02:37:54.458Z,18.70
2022-08-28T02:40:29.240Z,16.33
2022-08-28T02:43:01.025Z,19.60
2022-08-28T02:45:33.420Z,17.75
2022-08-28T02:48:12.029Z,19.57
2022-08-28T02:53:20.517Z,17.25
2022-08-28T02:55:53.786Z,17.27
2022-08-28T02:58:27.237Z,18.98
2022-08-28T03:00:59.361Z,17.92
2022-08-28T03:03:32.522Z,19.23
2022-08-28T03:06:05.060Z,17.08
2022-08-28T03:08:37.469Z,16.05
2022-08-28T03:11:11.946Z,16.38
2022-08-28T03:13:44.015Z,17.13
2022-08-28T03:16:16.439Z,18.00
2022-08-28T03:18:48.362Z,15.93
2022-08-28T03:21:20.254Z,16.83
2022-08-28T03:23:52.085Z,16.08
2022-08-28T03:26:25.249Z,16.55
2022-08-28T03:28:57.671Z,20.33
2022-08-28T03:31:33.806Z,15.85
2022-08-28T03:34:06.175Z,17.50
2022-08-28T03:36:37.991Z,16.98
2022-08-28T03:39:10.112Z,20.05
2022-08-28T03:41:43.198Z,19.50
2022-08-28T03:44:15.820Z,17.10
2022-08-28T03:46:47.619Z,21.27
2022-08-28T03:49:19.812Z,18.38
2022-08-28T03:54:25.168Z,15.77
2022-08-28T03:56:58.461Z,20.20
2022-08-28T04:02:05.549Z,17.42
2022-08-28T04:04:37.365Z,19.83
2022-08-28T04:07:09.141Z,21.23
2022-08-28T04:09:41.001Z,19.40
2022-08-28T04:12:15.182Z,18.20
2022-08-28T04:14:47.043Z,16.10
2022-08-28T04:17:19.110Z,16.42
2022-08-28T04:19:52.876Z,16.52
2022-08-28T04:22:24.766Z,19.25
2022-08-28T04:24:56.566Z,16.75
2022-08-28T04:27:29.718Z,18.48
2022-08-28T04:30:01.717Z,20.50
2022-08-28T04:32:34.597Z,20.45
2022-08-28T04:35:09.860Z,13.52
2022-08-28T04:37:43.670Z,16.52
2022-08-28T04:40:15.982Z,16.85
2022-08-28T04:42:51.429Z,18.67
2022-08-28T04:45:23.270Z,17.15
2022-08-28T04:47:55.049Z,17.92
2022-08-28T04:50:26.837Z,17.60
2022-08-28T04:52:58.750Z,16.90
2022-08-28T04:55:53.589Z,17.45
2022-08-28T04:58:24.100Z,18.73
2022-08-28T05:00:56.566Z,17.80
2022-08-28T05:03:28.638Z,16.08
2022-08-28T05:06:00.551Z,17.38
2022-08-28T05:08:32.441Z,17.77
2022-08-28T05:11:12.653Z,16.15
2022-08-28T05:13:46.059Z,16.88
2022-08-28T05:18:50.850Z,14.65
2022-08-28T05:21:23.354Z,13.80
2022-08-28T05:23:57.702Z,17.37
2022-08-28T05:26:30.038Z,14.88
2022-08-28T05:29:04.758Z,16.50
2022-08-28T05:31:39.001Z,16.08
2022-08-28T05:34:10.944Z,16.98
2022-08-28T05:36:42.851Z,15.73
2022-08-28T05:39:14.944Z,15.40
2022-08-28T05:41:47.192Z,16.60
2022-08-28T05:44:20.996Z,19.42
2022-08-28T05:46:52.857Z,16.98
2022-08-28T05:49:24.815Z,16.05
2022-08-28T05:51:56.633Z,19.33
2022-08-28T05:54:29.201Z,16.70
2022-08-28T05:57:01.070Z,15.23
2022-08-28T05:59:36.834Z,14.63
2022-08-28T06:02:08.952Z,20.23
2022-08-28T06:04:40.864Z,14.93
2022-08-28T06:07:13.708Z,14.85
2022-08-28T06:09:45.797Z,15.52
2022-08-28T06:12:17.556Z,16.00
2022-08-28T06:14:51.253Z,15.90
2022-08-28T06:17:23.850Z,14.18
2022-08-28T06:19:55.823Z,21.08
2022-08-28T06:22:27.680Z,14.50
2022-08-28T06:24:59.475Z,14.70
2022-08-28T06:27:33.617Z,15.45
2022-08-28T06:30:08.894Z,15.48
2022-08-28T06:32:40.800Z,13.65
2022-08-28T06:35:12.610Z,16.33
2022-08-28T06:37:44.691Z,16.25
2022-08-28T06:40:16.695Z,14.25
2022-08-28T06:42:48.650Z,13.63
2022-08-28T06:45:21.829Z,14.23
2022-08-28T06:47:53.641Z,12.65
2022-08-28T06:50:26.734Z,13.63
2022-08-28T06:52:58.745Z,13.80
2022-08-28T06:55:30.522Z,15.43
2022-08-28T06:58:02.658Z,16.88
2022-08-28T07:00:37.184Z,12.55
2022-08-28T07:03:10.194Z,11.90
2022-08-28T07:05:42.046Z,11.43
2022-08-28T07:08:14.078Z,13.68
2022-08-28T07:10:46.048Z,14.15
2022-08-28T07:13:17.835Z,13.27
2022-08-28T07:15:51.237Z,13.00
2022-08-28T07:18:23.563Z,14.43
2022-08-28T07:20:56.482Z,14.32
2022-08-28T07:23:28.847Z,11.73
2022-08-28T07:26:03.391Z,13.67
2022-08-28T07:28:36.452Z,10.07
2022-08-28T07:31:11.328Z,13.35
2022-08-28T07:33:43.642Z,12.90
2022-08-28T07:36:29.890Z,11.43
2022-08-28T07:39:01.898Z,13.73
2022-08-28T07:41:35.573Z,12.50
2022-08-28T07:44:27.780Z,11.20
2022-08-28T07:47:04.057Z,12.43
2022-08-28T07:49:36.088Z,13.48
2022-08-28T07:52:08.812Z,12.13
2022-08-28T07:54:40.853Z,11.95
2022-08-28T07:57:12.678Z,12.85
2022-08-28T07:59:44.618Z,11.07
2022-08-28T08:02:18.916Z,13.00
2022-08-28T08:04:50.748Z,10.95
2022-08-28T08:07:22.595Z,10.57
2022-08-28T08:09:54.383Z,10.63
2022-08-28T08:12:26.392Z,13.05
2022-08-28T08:15:01.262Z,11.60
2022-08-28T08:17:34.497Z,9.75
2022-08-28T08:20:08.690Z,12.60
2022-08-28T08:22:40.581Z,10.10
2022-08-28T08:25:12.568Z,10.95
2022-08-28T08:27:44.377Z,12.35
2022-08-28T08:30:16.472Z,12.18
2022-08-28T08:32:50.884Z,10.57
2022-08-28T08:35:22.705Z,10.65
2022-08-28T08:37:54.517Z,15.95
2022-08-28T08:40:26.376Z,11.35
2022-08-28T08:42:58.248Z,10.52
2022-08-28T08:45:31.949Z,11.18
2022-08-28T08:48:05.403Z,11.52
2022-08-28T08:50:37.272Z,11.30
2022-08-28T08:53:20.767Z,9.02
2022-08-28T08:58:29.874Z,11.50
2022-08-28T09:01:09.460Z,10.25
2022-08-28T09:03:55.248Z,12.40
2022-08-28T09:06:39.890Z,11.70
2022-08-28T09:09:17.411Z,10.60
2022-08-28T09:11:57.003Z,15.35
2022-08-28T09:14:36.975Z,10.98
2022-08-28T09:17:11.887Z,12.50
2022-08-28T09:19:45.388Z,10.80
2022-08-28T09:22:17.290Z,12.45
2022-08-28T09:24:50.414Z,11.00
2022-08-28T09:27:26.249Z,11.25
2022-08-28T09:30:07.998Z,13.43
2022-08-28T09:32:45.428Z,10.30
2022-08-28T09:35:29.399Z,9.98
2022-08-28T09:38:18.820Z,13.23
2022-08-28T09:41:24.860Z,11.23
2022-08-28T09:43:57.138Z,12.60
2022-08-28T09:46:31.554Z,11.13
2022-08-28T09:49:09.932Z,10.20
2022-08-28T09:51:43.218Z,11.30
2022-08-28T09:56:50.727Z,13.00
2022-08-28T09:59:25.092Z,11.52
2022-08-28T10:02:27.559Z,16.25
2022-08-28T10:05:03.186Z,11.73
2022-08-28T10:07:46.334Z,10.90
2022-08-28T10:10:27.838Z,13.57
2022-08-28T10:13:07.441Z,12.93
2022-08-28T10:15:54.081Z,15.00
2022-08-28T10:18:36.282Z,14.55
2022-08-28T10:21:15.296Z,11.10
2022-08-28T10:24:06.596Z,11.25
2022-08-28T10:26:48.803Z,10.68
2022-08-28T10:29:33.319Z,16.88
2022-08-28T10:32:23.845Z,11.23
2022-08-28T10:35:05.960Z,10.98
2022-08-28T10:37:47.493Z,7.78
2022-08-28T10:40:25.239Z,11.48
2022-08-28T10:43:03.776Z,7.35
2022-08-28T10:45:38.075Z,8.93
2022-08-28T10:48:19.810Z,8.02
2022-08-28T10:50:56.122Z,7.97
2022-08-28T10:53:33.122Z,11.32
2022-08-28T10:56:13.063Z,9.80
2022-08-28T10:58:49.354Z,8.15
2022-08-28T11:01:28.991Z,8.60
2022-08-28T11:04:06.808Z,6.95
2022-08-28T11:06:43.321Z,8.77
2022-08-28T11:09:25.858Z,8.90
2022-08-28T11:12:02.521Z,14.23
2022-08-28T11:14:48.049Z,8.77
2022-08-28T11:17:39.784Z,9.27
2022-08-28T11:20:16.149Z,7.20
2022-08-28T11:22:53.107Z,8.05
2022-08-28T11:25:32.786Z,8.80
2022-08-28T11:28:40.490Z,9.43
2022-08-28T11:31:29.627Z,8.68
2022-08-28T11:34:02.846Z,8.73
2022-08-28T11:39:25.349Z,11.07
2022-08-28T11:42:37.323Z,9.60
2022-08-28T11:45:18.879Z,7.60
2022-08-28T11:47:56.458Z,6.60
2022-08-28T11:50:31.389Z,9.30
2022-08-28T11:53:31.886Z,10.88
2022-08-28T11:56:31.126Z,7.78
2022-08-28T11:59:42.361Z,10.52
2022-08-28T12:02:44.157Z,8.40
2022-08-28T12:05:42.122Z,7.90
2022-08-28T12:09:09.020Z,9.40
2022-08-28T12:11:59.847Z,9.27
2022-08-28T12:15:02.272Z,8.07
2022-08-28T12:17:50.798Z,6.28
2022-08-28T12:20:33.252Z,7.35
2022-08-28T12:23:32.193Z,6.23
2022-08-28T12:26:07.318Z,10.23
2022-08-28T12:28:45.121Z,9.40
2022-08-28T12:31:58.994Z,6.43
2022-08-28T12:37:39.449Z,8.80
2022-08-28T12:40:27.573Z,7.50
2022-08-28T12:43:02.411Z,9.43
2022-08-28T12:48:16.834Z,8.15
2022-08-28T12:56:11.635Z,5.20
2022-08-28T12:58:44.501Z,6.00
2022-08-28T13:01:25.706Z,7.20
2022-08-28T13:03:59.974Z,5.72
2022-08-28T13:06:35.925Z,5.68
2022-08-28T13:09:15.508Z,6.85
2022-08-28T13:11:49.366Z,7.35
2022-08-28T13:32:40.481Z,5.85
2022-08-28T13:35:30.172Z,5.68
2022-08-28T13:38:03.517Z,5.15
2022-08-28T13:41:00.820Z,6.05
2022-08-28T13:43:44.105Z,5.40
2022-08-28T13:46:16.015Z,5.75
2022-08-28T13:48:47.850Z,5.80
2022-08-28T13:51:21.351Z,8.93
2022-08-28T13:53:53.740Z,4.80
2022-08-28T13:56:27.224Z,4.65
2022-08-28T13:58:58.998Z,4.75
2022-08-28T14:01:50.115Z,5.83
2022-08-28T14:04:22.413Z,5.00
2022-08-28T14:06:54.247Z,5.32
2022-08-28T14:09:27.079Z,7.90
2022-08-28T14:12:00.347Z,4.38
2022-08-28T14:14:32.606Z,7.05
2022-08-28T14:17:04.790Z,6.18
2022-08-28T14:19:37.284Z,6.35
2022-08-28T14:22:09.136Z,5.78
2022-08-28T14:24:41.325Z,6.90
2022-08-28T14:27:14.461Z,6.32
2022-08-28T14:29:46.465Z,8.55
2022-08-28T14:32:18.456Z,6.57
2022-08-28T14:34:51.325Z,8.85
2022-08-28T14:37:23.154Z,5.90
2022-08-28T14:39:55.051Z,5.37
2022-08-28T14:42:28.448Z,6.53
2022-08-28T14:45:00.300Z,5.10
2022-08-28T14:47:32.101Z,6.53
2022-08-28T14:50:04.120Z,7.33
2022-08-28T14:52:35.928Z,4.18
2022-08-28T14:55:11.134Z,6.00
2022-08-28T14:57:44.710Z,8.10
2022-08-28T15:00:20.937Z,10.25
2022-08-28T15:02:53.324Z,5.90
2022-08-28T15:05:31.757Z,5.53
2022-08-28T15:08:07.264Z,5.80
2022-08-28T15:10:39.783Z,6.47
2022-08-28T15:13:13.216Z,6.93
2022-08-28T15:15:47.757Z,5.45
2022-08-28T15:18:19.535Z,7.07
2022-08-28T15:20:51.349Z,5.32
2022-08-28T15:23:23.616Z,4.80
2022-08-28T15:25:55.787Z,4.68
2022-08-28T15:28:28.897Z,4.68
2022-08-28T15:31:00.645Z,6.95
2022-08-28T15:33:32.509Z,4.65
2022-08-28T15:36:04.505Z,7.47
2022-08-28T15:38:56.634Z,5.17
2022-08-28T15:41:30.645Z,7.72
2022-08-28T15:44:04.611Z,6.63
2022-08-28T15:46:36.454Z,5.22
2022-08-28T15:49:09.407Z,5.90
2022-08-28T15:51:42.387Z,5.88
2022-08-28T15:54:14.475Z,4.00
2022-08-28T15:56:46.666Z,5.30
2022-08-28T15:59:23.766Z,6.57
2022-08-28T16:02:12.329Z,6.47
2022-08-28T16:04:44.357Z,5.47
2022-08-28T16:07:17.620Z,8.60
2022-08-28T16:09:49.750Z,4.38
2022-08-28T16:12:21.589Z,7.40
2022-08-28T16:14:54.829Z,5.28
2022-08-28T16:17:26.969Z,6.20
2022-08-28T16:19:59.159Z,6.63
2022-08-28T16:22:31.036Z,5.38
2022-08-28T16:25:04.310Z,6.60
2022-08-28T16:27:42.195Z,5.32
2022-08-28T16:33:11.699Z,5.50
2022-08-28T16:38:28.693Z,5.63
2022-08-28T16:41:00.510Z,5.33
2022-08-28T16:43:32.398Z,5.38
2022-08-28T16:46:09.651Z,7.50
2022-08-28T16:48:41.453Z,5.03
2022-08-28T16:51:13.889Z,4.93
2022-08-28T16:53:45.975Z,5.90
2022-08-28T16:56:18.385Z,5.87
2022-08-28T16:58:50.866Z,4.93
2022-08-28T17:01:26.956Z,4.15
2022-08-28T17:03:59.181Z,4.70
2022-08-28T17:06:32.128Z,5.27
2022-08-28T17:11:36.135Z,4.40
2022-08-28T17:14:09.092Z,4.05
2022-08-28T17:16:42.358Z,4.32
2022-08-28T17:19:15.664Z,6.20
2022-08-28T17:22:06.225Z,5.82
2022-08-28T17:24:39.907Z,5.93
2022-08-28T17:27:11.695Z,5.63
2022-08-28T17:29:43.945Z,7.03
2022-08-28T17:32:20.022Z,4.47
2022-08-28T17:34:51.885Z,5.47
2022-08-28T17:37:24.823Z,6.85
2022-08-28T17:39:56.650Z,6.00
2022-08-28T17:42:28.486Z,6.43
2022-08-28T17:45:00.310Z,5.47
2022-08-28T17:47:33.790Z,6.35
2022-08-28T17:50:06.556Z,4.15
2022-08-28T17:52:38.589Z,5.20
2022-08-28T17:55:10.601Z,5.93
2022-08-28T17:57:42.630Z,6.43
2022-08-28T18:00:16.467Z,7.18
2022-08-28T18:02:52.384Z,6.63
2022-08-28T18:05:24.370Z,5.22
2022-08-28T18:07:56.183Z,5.05
2022-08-28T18:10:33.411Z,7.05
2022-08-28T18:13:05.837Z,6.15
2022-08-28T18:15:37.690Z,6.53
2022-08-28T18:18:12.695Z,6.45
2022-08-28T18:20:44.584Z,6.97
2022-08-28T18:23:16.454Z,7.00
2022-08-28T18:25:50.964Z,9.75
2022-08-28T18:28:24.841Z,7.22
2022-08-28T18:30:56.688Z,7.18
2022-08-28T18:33:29.859Z,6.70
2022-08-28T18:38:35.512Z,6.20
2022-08-28T18:41:08.899Z,5.95
2022-08-28T18:43:41.959Z,5.35
2022-08-28T18:46:14.404Z,8.95
2022-08-28T18:48:47.957Z,6.03
2022-08-28T18:51:21.325Z,7.55
2022-08-28T18:53:53.637Z,7.85
2022-08-28T18:59:52.847Z,7.70
2022-08-28T19:02:25.019Z,8.52
2022-08-28T19:04:58.336Z,8.17
2022-08-28T19:10:02.000Z,7.72
2022-08-28T19:12:34.330Z,8.43
2022-08-28T19:15:08.470Z,8.93
2022-08-28T19:17:41.573Z,8.10
2022-08-28T19:20:17.022Z,7.93
2022-08-28T19:22:49.131Z,7.88
2022-08-28T19:25:28.450Z,7.35
2022-08-28T19:28:02.646Z,7.80
2022-08-28T19:30:35.115Z,10.50
2022-08-28T19:33:06.933Z,7.38
2022-08-28T19:35:40.128Z,13.50
2022-08-28T19:38:12.139Z,7.05
2022-08-28T19:40:45.448Z,7.57
2022-08-28T19:43:17.692Z,7.70
2022-08-28T19:48:47.167Z,7.33
2022-08-28T19:51:42.151Z,9.50
2022-08-28T19:54:15.844Z,7.10
2022-08-28T19:56:59.571Z,9.10
2022-08-28T19:59:59.331Z,7.45
2022-08-28T20:06:01.550Z,9.45
2022-08-28T20:08:38.729Z,6.63
2022-08-28T20:11:43.134Z,8.20
2022-08-28T20:14:43.311Z,5.68
2022-08-28T20:17:23.599Z,4.70
2022-08-28T20:20:19.315Z,5.70
2022-08-28T20:23:06.256Z,6.15
2022-08-28T20:28:54.468Z,10.52
2022-08-28T20:34:44.359Z,8.15
2022-08-28T20:37:45.836Z,4.35
2022-08-28T20:43:36.051Z,7.10
2022-08-28T20:49:43.328Z,6.72
2022-08-28T20:52:49.252Z,6.55
2022-08-28T20:56:11.082Z,4.07
2022-08-28T20:59:37.222Z,7.30
2022-08-28T21:02:22.769Z,5.95
2022-08-28T21:04:55.359Z,5.85
2022-08-28T21:07:27.912Z,6.40
2022-08-28T21:10:05.456Z,6.70
2022-08-28T21:12:39.944Z,8.15
2022-08-28T21:15:13.595Z,5.47
2022-08-28T21:17:45.542Z,5.00
2022-08-28T21:20:20.005Z,5.50
2022-08-28T21:22:52.597Z,6.35
2022-08-28T21:25:28.275Z,4.88
2022-08-28T21:28:00.094Z,6.55
2022-08-28T21:30:40.358Z,6.38
2022-08-28T21:33:12.263Z,6.47
2022-08-28T21:35:44.841Z,6.70
2022-08-28T21:38:16.607Z,5.93
2022-08-28T21:40:48.530Z,6.97
2022-08-28T21:43:20.336Z,7.22
2022-08-28T21:45:59.078Z,6.25
2022-08-28T21:48:37.827Z,4.75
2022-08-28T21:51:11.414Z,5.97
2022-08-28T21:53:44.048Z,6.78
2022-08-28T21:56:17.290Z,6.67
2022-08-28T21:58:50.019Z,6.50
2022-08-28T22:01:25.814Z,7.20
2022-08-28T22:03:57.757Z,7.78
2022-08-28T22:06:30.065Z,6.57
2022-08-28T22:09:03.403Z,6.53
2022-08-28T22:14:07.105Z,9.70
2022-08-28T22:16:40.378Z,7.45
2022-08-28T22:22:02.262Z,5.63
2022-08-28T22:24:36.570Z,6.22
2022-08-28T22:29:40.175Z,7.10
2022-08-28T22:32:13.330Z,9.15
2022-08-28T22:34:46.639Z,6.80
2022-08-28T22:39:50.084Z,8.57
2022-08-28T22:42:23.046Z,8.25
2022-08-28T22:44:55.044Z,8.95
2022-08-28T22:47:28.513Z,6.93
2022-08-28T22:50:00.505Z,9.40
2022-08-28T22:52:32.718Z,8.05
2022-08-28T22:55:07.687Z,5.78
2022-08-28T22:57:41.285Z,6.85
2022-08-28T23:00:16.401Z,7.78
2022-08-28T23:02:50.835Z,10.07
2022-08-28T23:05:23.962Z,5.97
2022-08-28T23:07:55.802Z,8.30
2022-08-28T23:10:48.195Z,8.52
2022-08-28T23:13:20.202Z,7.72
2022-08-28T23:15:52.606Z,10.30
2022-08-28T23:18:25.858Z,7.22
2022-08-28T23:21:01.230Z,6.65
2022-08-28T23:23:33.432Z,8.27
2022-08-28T23:26:05.390Z,6.20
2022-08-28T23:28:37.257Z,7.88
2022-08-28T23:31:09.848Z,8.18
2022-08-28T23:33:43.497Z,7.30
2022-08-28T23:36:15.457Z,8.50
2022-08-28T23:38:49.481Z,6.93
2022-08-28T23:41:26.222Z,6.07
2022-08-28T23:43:58.317Z,7.20
2022-08-28T23:46:30.226Z,7.05
2022-08-28T23:49:06.898Z,8.15
2022-08-28T23:51:41.679Z,6.72
2022-08-28T23:54:13.510Z,6.43
2022-08-28T23:56:46.183Z,8.07
2022-08-28T23:59:21.212Z,6.78
